createdAt,value
2017-09-04T00:01:39.805Z,96.55
2017-09-04T00:04:07.324Z,97.29
2017-09-04T00:06:34.830Z,97.02
2017-09-04T00:09:02.331Z,96.99
2017-09-04T00:11:29.847Z,96.83
2017-09-04T00:13:57.367Z,96.69
2017-09-04T00:16:24.871Z,96.05
2017-09-04T00:18:52.372Z,95.21
2017-09-04T00:21:19.923Z,96.24
2017-09-04T00:23:47.436Z,97.56
2017-09-04T00:26:14.955Z,97.66
2017-09-04T00:28:42.451Z,97.63
2017-09-04T00:31:09.964Z,97.77
2017-09-04T00:33:37.471Z,98.08
2017-09-04T00:36:04.990Z,97.82
2017-09-04T00:38:32.501Z,97.30
2017-09-04T00:41:00.008Z,97.82
2017-09-04T00:43:27.512Z,97.72
2017-09-04T00:45:55.024Z,96.80
2017-09-04T00:48:22.525Z,96.62
2017-09-04T00:50:50.024Z,97.77
2017-09-04T00:53:17.560Z,97.90
2017-09-04T00:55:45.096Z,97.77
2017-09-04T00:58:12.620Z,97.94
2017-09-04T01:00:41.368Z,96.82
2017-09-04T01:03:08.890Z,96.59
2017-09-04T01:05:36.410Z,96.01
2017-09-04T01:08:03.971Z,96.10
2017-09-04T01:10:31.462Z,95.68
2017-09-04T01:12:58.959Z,95.36
2017-09-04T01:15:26.495Z,96.02
2017-09-04T01:17:53.994Z,96.05
2017-09-04T01:20:21.499Z,95.91
2017-09-04T01:22:49.008Z,95.34
2017-09-04T01:25:16.511Z,95.92
2017-09-04T01:27:44.006Z,96.68
2017-09-04T01:30:11.585Z,95.84
2017-09-04T01:32:39.110Z,95.78
2017-09-04T01:35:06.613Z,95.38
2017-09-04T01:37:34.127Z,95.46
2017-09-04T01:40:01.620Z,95.01
2017-09-04T01:42:29.150Z,94.92
2017-09-04T01:44:56.651Z,95.02
2017-09-04T01:47:24.167Z,95.27
2017-09-04T01:49:51.670Z,95.54
2017-09-04T01:52:19.241Z,94.45
2017-09-04T01:54:46.752Z,93.17
2017-09-04T01:57:14.269Z,93.67
2017-09-04T01:59:41.773Z,94.73
2017-09-04T02:02:09.277Z,95.13
2017-09-04T02:04:36.803Z,94.30
2017-09-04T02:07:04.315Z,94.69
2017-09-04T02:09:31.835Z,94.35
2017-09-04T02:11:59.362Z,94.45
2017-09-04T02:14:26.863Z,95.68
2017-09-04T02:16:54.404Z,96.34
2017-09-04T02:19:21.943Z,97.79
2017-09-04T02:21:49.454Z,98.31
2017-09-04T02:24:16.983Z,98.99
2017-09-04T02:26:44.516Z,99.43
2017-09-04T02:29:12.048Z,99.69
2017-09-04T02:31:39.590Z,99.67
2017-09-04T02:34:07.120Z,99.33
2017-09-04T02:36:34.628Z,99.70
2017-09-04T02:39:02.174Z,99.21
2017-09-04T02:41:29.694Z,99.56
2017-09-04T02:43:57.227Z,100.00
2017-09-04T02:46:24.745Z,100.00
2017-09-04T02:48:52.266Z,100.00
2017-09-04T02:51:19.798Z,100.00
2017-09-04T02:53:47.306Z,100.00
2017-09-04T02:56:14.850Z,100.00
2017-09-04T02:58:42.363Z,100.00
2017-09-04T03:01:09.886Z,100.00
2017-09-04T03:03:37.406Z,100.00
2017-09-04T03:06:04.918Z,99.72
2017-09-04T03:08:32.454Z,99.62
2017-09-04T03:10:59.972Z,99.61
2017-09-04T03:13:27.508Z,99.87
2017-09-04T03:15:55.020Z,99.97
2017-09-04T03:18:22.539Z,100.00
2017-09-04T03:20:50.077Z,100.00
2017-09-04T03:23:17.597Z,100.00
2017-09-04T03:25:45.123Z,100.00
2017-09-04T03:28:12.637Z,100.00
2017-09-04T03:30:40.173Z,100.00
2017-09-04T03:33:07.730Z,100.00
2017-09-04T03:35:35.250Z,100.00
2017-09-04T03:38:02.767Z,100.00
2017-09-04T03:40:30.280Z,100.00
2017-09-04T03:42:57.793Z,100.00
2017-09-04T03:45:25.313Z,100.00
2017-09-04T03:47:52.820Z,100.00
2017-09-04T03:50:20.327Z,100.00
2017-09-04T03:52:47.859Z,100.00
2017-09-04T03:55:15.381Z,100.00
2017-09-04T03:57:42.892Z,100.00
2017-09-04T04:00:10.409Z,100.00
2017-09-04T04:02:37.919Z,100.00
2017-09-04T04:05:05.444Z,100.00
2017-09-04T04:07:32.977Z,100.00
2017-09-04T04:10:00.478Z,100.00
2017-09-04T04:12:28.000Z,99.81
2017-09-04T04:14:55.618Z,100.00
2017-09-04T04:17:23.139Z,100.00
2017-09-04T04:19:50.659Z,100.00
2017-09-04T04:22:18.240Z,100.00
2017-09-04T04:24:45.746Z,100.00
2017-09-04T04:27:13.266Z,100.00
2017-09-04T04:29:40.799Z,100.00
2017-09-04T04:32:08.334Z,100.00
2017-09-04T04:34:35.914Z,99.99
2017-09-04T04:37:03.423Z,100.00
2017-09-04T04:39:30.950Z,100.00
2017-09-04T04:41:58.479Z,100.00
2017-09-04T04:44:26.019Z,100.00
2017-09-04T04:46:53.531Z,99.91
2017-09-04T04:49:21.049Z,99.87
2017-09-04T04:51:48.574Z,99.79
2017-09-04T04:54:16.101Z,99.98
2017-09-04T04:56:43.629Z,100.00
2017-09-04T04:59:11.141Z,99.79
2017-09-04T05:01:38.652Z,99.84
2017-09-04T05:04:06.163Z,99.82
2017-09-04T05:06:33.686Z,99.87
2017-09-04T05:09:01.201Z,100.00
2017-09-04T05:11:28.708Z,99.69
2017-09-04T05:13:56.204Z,99.34
2017-09-04T05:16:23.702Z,98.63
2017-09-04T05:18:51.211Z,98.30
2017-09-04T05:21:18.715Z,97.69
2017-09-04T05:23:46.384Z,98.44
2017-09-04T05:26:13.892Z,98.41
2017-09-04T05:28:41.504Z,98.34
2017-09-04T05:31:09.003Z,98.61
2017-09-04T05:33:36.519Z,99.14
2017-09-04T05:36:04.033Z,98.86
2017-09-04T05:38:31.538Z,97.90
2017-09-04T05:40:59.056Z,97.64
2017-09-04T05:43:26.562Z,97.55
2017-09-04T05:45:54.063Z,97.81
2017-09-04T05:48:21.564Z,97.41
2017-09-04T05:50:49.068Z,96.68
2017-09-04T05:53:16.597Z,95.84
2017-09-04T05:55:44.119Z,94.34
2017-09-04T05:58:11.711Z,95.57
2017-09-04T06:00:39.256Z,95.28
2017-09-04T06:03:06.768Z,94.84
2017-09-04T06:05:34.276Z,95.55
2017-09-04T06:08:01.780Z,95.13
2017-09-04T06:10:29.276Z,95.37
2017-09-04T06:12:56.784Z,94.01
2017-09-04T06:15:24.316Z,92.14
2017-09-04T06:17:51.836Z,92.16
2017-09-04T06:20:19.337Z,90.74
2017-09-04T06:22:46.856Z,89.68
2017-09-04T06:25:14.395Z,88.69
2017-09-04T06:27:41.926Z,90.60
2017-09-04T06:30:09.442Z,89.28
2017-09-04T06:32:36.950Z,91.10
2017-09-04T06:35:04.473Z,91.46
2017-09-04T06:37:32.028Z,92.39
2017-09-04T06:39:59.554Z,89.98
2017-09-04T06:42:27.087Z,90.52
2017-09-04T06:44:54.607Z,92.12
2017-09-04T06:47:22.183Z,89.64
2017-09-04T06:49:49.716Z,88.70
2017-09-04T06:52:17.227Z,90.67
2017-09-04T06:54:44.745Z,88.72
2017-09-04T06:57:12.258Z,84.33
2017-09-04T06:59:39.770Z,86.44
2017-09-04T07:02:07.297Z,87.49
2017-09-04T07:04:34.856Z,85.98
2017-09-04T07:07:02.382Z,86.64
2017-09-04T07:09:29.897Z,85.40
2017-09-04T07:11:57.523Z,82.98
2017-09-04T07:14:25.053Z,82.96
2017-09-04T07:16:52.578Z,83.71
2017-09-04T07:19:20.084Z,80.92
2017-09-04T07:21:47.622Z,83.21
2017-09-04T07:24:15.154Z,79.39
2017-09-04T07:26:42.660Z,75.02
2017-09-04T07:29:10.182Z,74.92
2017-09-04T07:31:39.057Z,72.35
2017-09-04T07:34:06.806Z,70.73
2017-09-04T07:36:34.319Z,67.76
2017-09-04T07:39:01.841Z,71.08
2017-09-04T07:41:29.396Z,69.10
2017-09-04T07:43:56.907Z,67.61
2017-09-04T07:46:24.427Z,70.44
2017-09-04T07:48:51.967Z,70.15
2017-09-04T07:51:19.489Z,66.53
2017-09-04T07:53:47.057Z,68.25
2017-09-04T07:56:14.588Z,69.47
2017-09-04T07:58:42.115Z,67.77
2017-09-04T08:01:09.626Z,66.86
2017-09-04T08:03:37.130Z,68.54
2017-09-04T08:06:04.642Z,64.20
2017-09-04T08:08:32.164Z,63.91
2017-09-04T08:10:59.676Z,64.78
2017-09-04T08:13:27.195Z,64.78
2017-09-04T08:15:54.785Z,61.17
2017-09-04T08:18:22.660Z,60.33
2017-09-04T08:20:50.207Z,59.66
2017-09-04T08:23:17.708Z,58.31
2017-09-04T08:25:45.239Z,58.32
2017-09-04T08:28:12.774Z,57.80
2017-09-04T08:30:40.293Z,62.10
2017-09-04T08:33:07.811Z,58.69
2017-09-04T08:35:35.348Z,59.90
2017-09-04T08:38:02.867Z,56.32
2017-09-04T08:40:30.379Z,58.72
2017-09-04T08:42:57.943Z,55.60
2017-09-04T08:45:25.450Z,54.23
2017-09-04T08:47:53.004Z,49.87
2017-09-04T08:50:20.519Z,50.04
2017-09-04T08:52:48.034Z,47.65
2017-09-04T08:55:15.535Z,45.85
2017-09-04T08:57:43.068Z,46.30
2017-09-04T09:00:10.646Z,50.89
2017-09-04T09:02:38.154Z,44.49
2017-09-04T09:05:05.655Z,45.80
2017-09-04T09:07:33.172Z,41.79
2017-09-04T09:10:00.683Z,41.41
2017-09-04T09:12:28.192Z,40.70
2017-09-04T09:14:55.704Z,41.00
2017-09-04T09:17:23.276Z,39.03
2017-09-04T09:19:50.905Z,39.25
2017-09-04T09:22:18.598Z,41.87
2017-09-04T09:24:46.233Z,40.63
2017-09-04T09:27:13.765Z,38.96
2017-09-04T09:29:41.457Z,40.65
2017-09-04T09:32:08.971Z,40.32
2017-09-04T09:34:36.499Z,39.71
2017-09-04T09:37:04.012Z,40.80
2017-09-04T09:39:31.537Z,40.29
2017-09-04T09:41:59.048Z,38.67
2017-09-04T09:44:26.560Z,37.29
2017-09-04T09:46:54.079Z,33.45
2017-09-04T09:49:21.599Z,33.46
2017-09-04T09:51:49.103Z,31.79
2017-09-04T09:54:16.612Z,33.31
2017-09-04T09:56:44.159Z,28.97
2017-09-04T09:59:11.680Z,32.72
2017-09-04T10:01:39.216Z,33.36
2017-09-04T10:04:06.760Z,32.66
2017-09-04T10:06:34.274Z,30.01
2017-09-04T10:09:01.814Z,31.31
2017-09-04T10:11:29.493Z,30.18
2017-09-04T10:13:57.019Z,30.98
2017-09-04T10:16:24.544Z,27.54
2017-09-04T10:18:52.415Z,26.16
2017-09-04T10:21:20.063Z,25.60
2017-09-04T10:23:47.597Z,20.21
2017-09-04T10:26:15.115Z,21.45
2017-09-04T10:28:42.652Z,21.60
2017-09-04T12:41:27.331Z,38.40
2017-09-04T12:43:56.604Z,40.64
2017-09-04T12:46:26.142Z,38.60
2017-09-04T12:48:53.651Z,38.23
2017-09-04T12:51:21.175Z,39.75
2017-09-04T12:53:48.728Z,39.88
2017-09-04T12:56:16.245Z,40.32
2017-09-04T12:58:43.775Z,40.37
2017-09-04T13:01:11.294Z,39.84
2017-09-04T13:03:38.795Z,36.57
2017-09-04T13:06:06.504Z,36.32
2017-09-04T13:08:34.031Z,33.58
2017-09-04T13:11:07.255Z,34.41
2017-09-04T13:13:40.313Z,35.20
2017-09-04T13:16:13.387Z,38.02
2017-09-04T13:18:46.624Z,39.50
2017-09-04T13:21:19.922Z,38.63
2017-09-04T13:23:53.206Z,36.52
2017-09-04T13:29:29.924Z,40.72
2017-09-04T13:32:03.187Z,43.49
2017-09-04T13:34:36.380Z,43.36
2017-09-04T13:37:16.468Z,39.14
2017-09-04T13:39:49.661Z,39.81
2017-09-04T13:42:22.766Z,46.96
2017-09-04T13:44:55.884Z,46.63
2017-09-04T13:50:44.190Z,44.75
2017-09-04T13:56:45.615Z,43.45
2017-09-04T13:59:26.124Z,37.57
2017-09-04T14:02:02.164Z,35.18
2017-09-04T14:04:31.650Z,33.12
2017-09-04T14:06:59.691Z,34.71
2017-09-04T14:09:32.935Z,33.10
2017-09-04T14:12:06.065Z,34.83
2017-09-04T14:14:36.643Z,31.24
2017-09-04T14:20:05.124Z,38.06
2017-09-04T14:22:32.646Z,35.40
2017-09-04T14:25:00.202Z,36.64
2017-09-04T14:27:27.741Z,38.70
2017-09-04T14:29:55.263Z,40.26
2017-09-04T14:32:22.805Z,39.18
2017-09-04T14:34:50.327Z,40.38
2017-09-04T14:37:17.864Z,38.16
2017-09-04T14:39:45.391Z,40.88
2017-09-04T14:42:12.910Z,38.04
2017-09-04T14:44:40.437Z,45.22
2017-09-04T14:47:08.455Z,51.10
2017-09-04T14:49:35.985Z,45.61
2017-09-04T14:52:03.488Z,49.01
2017-09-04T14:54:31.037Z,52.14
2017-09-04T14:56:58.554Z,56.51
2017-09-04T14:59:26.092Z,59.89
2017-09-04T15:01:53.731Z,56.20
2017-09-04T15:04:21.251Z,58.65
2017-09-04T15:06:48.755Z,56.30
2017-09-04T15:09:16.288Z,53.03
2017-09-04T15:11:43.860Z,58.58
2017-09-04T15:14:11.390Z,60.16
2017-09-04T15:16:38.951Z,60.42
2017-09-04T15:19:06.523Z,60.51
2017-09-04T15:21:34.046Z,60.18
2017-09-04T15:24:01.668Z,61.35
2017-09-04T15:26:29.223Z,59.52
2017-09-04T15:28:56.735Z,62.50
2017-09-04T15:31:24.258Z,63.61
2017-09-04T15:33:51.772Z,60.14
2017-09-04T15:36:19.276Z,59.86
2017-09-04T15:38:46.791Z,62.81
2017-09-04T15:41:14.305Z,63.86
2017-09-04T15:43:41.823Z,64.14
2017-09-04T15:46:09.352Z,67.26
2017-09-04T15:48:36.869Z,70.48
2017-09-04T15:51:04.402Z,66.01
2017-09-04T15:53:31.911Z,60.54
2017-09-04T15:55:59.415Z,62.85
2017-09-04T15:58:26.946Z,63.62
2017-09-04T16:00:54.481Z,60.85
2017-09-04T16:03:22.060Z,64.65
2017-09-04T16:05:57.144Z,63.56
2017-09-04T16:08:27.306Z,64.41
2017-09-04T16:10:54.864Z,65.16
2017-09-04T16:13:22.905Z,65.88
2017-09-04T16:16:06.100Z,64.51
2017-09-04T16:18:35.063Z,64.59
2017-09-04T16:21:06.099Z,64.29
2017-09-04T16:23:43.858Z,65.84
2017-09-04T16:26:11.819Z,66.66
2017-09-04T16:28:49.271Z,66.26
2017-09-04T16:31:22.273Z,62.88
2017-09-04T16:37:14.466Z,63.55
2017-09-04T16:39:47.415Z,63.45
2017-09-04T16:42:20.496Z,62.96
2017-09-04T16:44:50.456Z,61.77
2017-09-04T16:47:23.923Z,61.65
2017-09-04T16:52:58.000Z,65.58
2017-09-04T16:55:26.301Z,70.28
2017-09-04T16:58:03.870Z,70.53
2017-09-04T17:00:31.471Z,72.85
2017-09-04T17:02:59.019Z,73.61
2017-09-04T17:05:26.542Z,74.88
2017-09-04T17:07:54.053Z,75.62
2017-09-04T17:10:23.541Z,76.78
2017-09-04T17:12:51.079Z,73.89
2017-09-04T17:15:18.613Z,76.61
2017-09-04T17:17:47.695Z,75.33
2017-09-04T17:23:20.328Z,75.42
2017-09-04T17:25:47.887Z,76.67
2017-09-04T17:28:15.407Z,81.64
2017-09-04T17:30:42.931Z,81.52
2017-09-04T17:33:10.437Z,80.65
2017-09-04T17:35:37.957Z,78.45
2017-09-04T17:38:05.606Z,80.27
2017-09-04T17:40:33.138Z,82.28
2017-09-04T17:43:00.637Z,81.92
2017-09-04T17:45:28.163Z,80.87
2017-09-04T17:47:55.675Z,78.39
2017-09-04T17:50:23.194Z,79.71
2017-09-04T17:52:50.726Z,79.99
2017-09-04T17:55:18.268Z,76.66
2017-09-04T17:57:45.807Z,74.69
2017-09-04T18:00:13.392Z,74.90
2017-09-04T18:02:40.912Z,79.96
2017-09-04T18:05:08.457Z,84.69
2017-09-04T18:07:35.959Z,84.92
2017-09-04T18:10:03.504Z,86.10
2017-09-04T18:12:31.063Z,87.06
2017-09-04T18:14:58.599Z,87.88
2017-09-04T18:17:26.113Z,87.21
2017-09-04T18:19:53.640Z,86.83
2017-09-04T18:22:21.241Z,86.62
2017-09-04T18:24:48.755Z,85.93
2017-09-04T18:27:16.299Z,85.33
2017-09-04T18:29:43.823Z,83.84
2017-09-04T18:32:11.358Z,83.17
2017-09-04T18:34:38.907Z,84.00
2017-09-04T18:37:06.436Z,86.13
2017-09-04T18:39:33.952Z,83.87
2017-09-04T18:42:01.467Z,85.46
2017-09-04T18:44:29.031Z,84.73
2017-09-04T18:46:56.574Z,82.70
2017-09-04T18:49:24.143Z,84.87
2017-09-04T18:51:53.339Z,85.74
2017-09-04T18:54:20.901Z,88.51
2017-09-04T18:56:48.428Z,89.64
2017-09-04T18:59:15.938Z,88.80
2017-09-04T19:01:43.451Z,90.86
2017-09-04T19:04:11.344Z,89.20
2017-09-04T19:06:38.871Z,87.02
2017-09-04T19:09:06.381Z,85.56
2017-09-04T19:11:33.936Z,86.46
2017-09-04T19:14:01.469Z,86.80
2017-09-04T19:16:29.030Z,86.87
2017-09-04T19:18:56.564Z,87.59
2017-09-04T19:21:24.088Z,89.58
2017-09-04T19:23:51.609Z,88.99
2017-09-04T19:26:19.142Z,91.00
2017-09-04T19:28:46.659Z,91.52
2017-09-04T19:31:14.212Z,91.26
2017-09-04T19:33:41.757Z,91.61
2017-09-04T19:36:09.288Z,90.88
2017-09-04T19:38:36.804Z,90.57
2017-09-04T19:41:04.379Z,90.78
2017-09-04T19:43:31.914Z,88.93
2017-09-04T19:45:59.446Z,90.10
2017-09-04T19:48:26.950Z,89.51
2017-09-04T19:50:54.471Z,90.70
2017-09-04T19:53:21.981Z,90.86
2017-09-04T19:55:49.492Z,91.14
2017-09-04T19:58:17.015Z,90.65
2017-09-04T20:00:44.550Z,89.62
2017-09-04T20:03:12.093Z,89.50
2017-09-04T20:05:41.641Z,91.16
2017-09-04T20:08:09.226Z,90.63
2017-09-04T20:10:36.815Z,89.64
2017-09-04T20:13:04.327Z,89.98
2017-09-04T20:15:31.831Z,90.66
2017-09-04T20:17:59.364Z,89.42
2017-09-04T20:20:26.909Z,87.52
2017-09-04T20:22:54.442Z,88.23
2017-09-04T20:25:22.005Z,88.68
2017-09-04T20:27:49.518Z,89.12
2017-09-04T20:30:17.060Z,91.24
2017-09-04T20:32:44.571Z,91.28
2017-09-04T20:35:12.072Z,88.75
2017-09-04T20:37:39.603Z,88.54
2017-09-04T20:40:07.150Z,88.77
2017-09-04T20:42:34.680Z,88.55
2017-09-04T20:45:02.200Z,87.00
2017-09-04T20:47:29.728Z,88.04
2017-09-04T20:49:57.255Z,88.34
2017-09-04T20:52:24.789Z,87.08
2017-09-04T20:54:52.305Z,87.29
2017-09-04T20:57:19.827Z,89.09
2017-09-04T20:59:47.342Z,89.63
2017-09-04T21:02:14.986Z,91.47
2017-09-04T21:04:42.542Z,91.38
2017-09-04T21:07:10.054Z,90.63
2017-09-04T21:09:37.584Z,89.78
2017-09-04T21:12:05.150Z,90.24
2017-09-04T21:14:32.679Z,90.74
2017-09-04T21:17:00.226Z,90.05
2017-09-04T21:19:27.733Z,90.14
2017-09-04T21:21:55.277Z,89.91
2017-09-04T21:24:22.799Z,90.57
2017-09-04T21:26:50.314Z,91.99
2017-09-04T21:29:17.885Z,93.40
2017-09-04T21:31:45.401Z,92.76
2017-09-04T21:34:12.918Z,92.56
2017-09-04T21:36:40.471Z,91.95
2017-09-04T21:39:08.052Z,92.88
2017-09-04T21:41:35.576Z,92.34
2017-09-04T21:44:03.091Z,91.87
2017-09-04T21:46:30.624Z,90.79
2017-09-04T21:48:58.135Z,90.08
2017-09-04T21:51:25.667Z,89.77
2017-09-04T21:53:53.219Z,90.11
2017-09-04T21:56:20.747Z,89.85
2017-09-04T21:58:48.243Z,89.47
2017-09-04T22:01:15.756Z,90.41
2017-09-04T22:03:43.290Z,91.50
2017-09-04T22:06:10.811Z,92.99
2017-09-04T22:08:38.326Z,93.90
2017-09-04T22:11:05.842Z,94.32
2017-09-04T22:13:33.357Z,94.48
2017-09-04T22:16:00.897Z,94.05
2017-09-04T22:18:28.435Z,92.78
2017-09-04T22:20:55.945Z,94.22
2017-09-04T22:23:23.470Z,94.36
2017-09-04T22:25:50.978Z,94.05
2017-09-04T22:28:18.502Z,92.96
2017-09-04T22:30:46.019Z,91.17
2017-09-04T22:33:13.526Z,90.19
2017-09-04T22:35:41.049Z,91.08
2017-09-04T22:38:08.578Z,91.13
2017-09-04T22:40:36.111Z,92.04
2017-09-04T22:43:03.628Z,92.69
2017-09-04T22:45:31.144Z,91.87
2017-09-04T22:47:58.663Z,90.50
2017-09-04T22:50:26.196Z,87.59
2017-09-04T22:52:53.736Z,86.70
2017-09-04T22:55:21.251Z,85.58
2017-09-04T22:57:48.772Z,87.71
2017-09-04T23:00:16.296Z,87.33
2017-09-04T23:02:43.802Z,84.98
2017-09-04T23:05:11.333Z,84.30
2017-09-04T23:07:38.867Z,84.41
2017-09-04T23:10:06.373Z,83.82
2017-09-04T23:12:33.902Z,83.35
2017-09-04T23:15:01.403Z,83.56
2017-09-04T23:17:28.912Z,83.57
2017-09-04T23:19:56.440Z,83.56
2017-09-04T23:22:23.962Z,84.08
2017-09-04T23:24:51.475Z,84.38
2017-09-04T23:27:18.983Z,83.56
2017-09-04T23:29:46.497Z,83.15
2017-09-04T23:32:14.060Z,85.36
2017-09-04T23:34:41.571Z,86.68
2017-09-04T23:37:09.081Z,88.55
2017-09-04T23:39:36.598Z,87.50
2017-09-04T23:42:04.160Z,86.56
2017-09-04T23:44:31.662Z,86.44
2017-09-04T23:46:59.186Z,87.31
2017-09-04T23:49:26.699Z,86.69
2017-09-04T23:51:54.264Z,87.02
2017-09-04T23:54:21.782Z,86.51
2017-09-04T23:56:49.292Z,85.88
2017-09-04T23:59:16.824Z,85.40
